Time;durP1;ratioP1;P1;durP2;ratioP2;P2;SDS_P1;SDS_P2;PMS_P1;PMS_P2;Temp;Humidity;BMP_temperature;BMP_pressure;BME280_temperature;BME280_humidity;BME280_pressure;Samples;Min_cycle;Max_cycle;Signal;HPM_P1;HPM_P2
2022/02/17 00:00:26;;;;;;;1.70;0.80;;;;;;;;;;5059979;28;20507;-80
2022/02/17 00:02:53;;;;;;;1.20;0.70;;;;;;;;;;5059473;28;20424;-80
2022/02/17 00:05:20;;;;;;;1.30;0.90;;;;;;;;;;5059844;28;20479;-80
2022/02/17 00:07:47;;;;;;;1.40;0.90;;;;;;;;;;5058967;28;20394;-80
2022/02/17 00:10:13;;;;;;;1.40;0.93;;;;;;;;;;5059197;28;20412;-81
2022/02/17 00:12:39;;;;;;;1.70;0.80;;;;;;;;;;5058980;28;20413;-81
2022/02/17 00:15:05;;;;;;;1.60;0.90;;;;;;;;;;5059146;28;20401;-79
2022/02/17 00:17:32;;;;;;;1.50;0.80;;;;;;;;;;5058290;28;20476;-80
2022/02/17 00:19:58;;;;;;;1.30;0.70;;;;;;;;;;5065113;28;20459;-80
2022/02/17 00:22:24;;;;;;;4.73;0.90;;;;;;;;;;5058305;28;20439;-79
2022/02/17 00:24:50;;;;;;;1.30;0.80;;;;;;;;;;5064897;28;20457;-79
2022/02/17 00:27:16;;;;;;;1.60;1.00;;;;;;;;;;5075059;28;20385;-79
2022/02/17 00:29:42;;;;;;;1.30;0.70;;;;;;;;;;5072900;28;20524;-79
2022/02/17 00:32:08;;;;;;;1.30;0.60;;;;;;;;;;5060224;28;20813;-80
2022/02/17 00:34:35;;;;;;;1.30;0.80;;;;;;;;;;5048861;23;1167627;-75
2022/02/17 00:37:03;;;;;;;1.30;0.70;;;;;;;;;;5075979;28;20401;-75
2022/02/17 00:39:30;;;;;;;1.97;1.10;;;;;;;;;;5076280;28;20415;-75
2022/02/17 00:41:56;;;;;;;1.40;0.80;;;;;;;;;;5076277;28;20445;-75
2022/02/17 00:44:22;;;;;;;1.37;0.80;;;;;;;;;;5087979;28;20423;-75
2022/02/17 00:46:49;;;;;;;1.37;0.83;;;;;;;;;;5096161;28;20427;-75
2022/02/17 00:49:15;;;;;;;1.30;0.70;;;;;;;;;;5096562;28;20407;-76
2022/02/17 00:51:41;;;;;;;1.30;0.70;;;;;;;;;;5096124;28;20408;-76
2022/02/17 00:54:07;;;;;;;1.40;0.90;;;;;;;;;;5096380;28;20431;-75
2022/02/17 00:56:34;;;;;;;1.23;0.67;;;;;;;;;;5096284;28;20404;-76
2022/02/17 00:59:00;;;;;;;1.30;0.80;;;;;;;;;;5095818;28;20492;-75
2022/02/17 01:01:27;;;;;;;1.87;0.80;;;;;;;;;;5096059;28;20399;-76
2022/02/17 01:03:53;;;;;;;1.20;0.70;;;;;;;;;;5096238;28;20424;-76
2022/02/17 01:06:19;;;;;;;1.20;0.70;;;;;;;;;;5095746;28;20473;-76
2022/02/17 01:08:45;;;;;;;1.30;0.70;;;;;;;;;;5095601;28;20430;-75
2022/02/17 01:11:11;;;;;;;1.20;0.70;;;;;;;;;;5096076;28;20407;-76
2022/02/17 01:13:37;;;;;;;1.20;0.60;;;;;;;;;;5095866;28;20431;-76
2022/02/17 01:16:03;;;;;;;1.30;0.70;;;;;;;;;;5095705;28;20484;-76
2022/02/17 01:18:29;;;;;;;1.30;0.70;;;;;;;;;;5095664;28;20905;-76
2022/02/17 01:20:55;;;;;;;1.30;0.70;;;;;;;;;;5095863;28;20410;-76
2022/02/17 01:23:21;;;;;;;1.50;0.80;;;;;;;;;;5095454;28;20424;-76
2022/02/17 01:25:47;;;;;;;1.30;0.70;;;;;;;;;;5095837;28;20498;-75
2022/02/17 01:28:13;;;;;;;3.10;0.73;;;;;;;;;;5095397;28;20407;-75
2022/02/17 01:30:40;;;;;;;1.30;0.70;;;;;;;;;;5095843;28;20766;-76
2022/02/17 01:33:06;;;;;;;1.20;0.60;;;;;;;;;;5095348;28;20445;-75
2022/02/17 01:35:33;;;;;;;1.30;0.80;;;;;;;;;;5095425;28;20479;-75
2022/02/17 01:37:59;;;;;;;1.30;0.70;;;;;;;;;;5095620;28;20494;-75
2022/02/17 01:40:25;;;;;;;2.57;0.90;;;;;;;;;;5095620;28;20404;-75
2022/02/17 01:42:51;;;;;;;1.30;0.80;;;;;;;;;;5095250;28;20951;-75
2022/02/17 01:45:17;;;;;;;1.20;0.60;;;;;;;;;;5095207;28;20982;-76
2022/02/17 01:47:44;;;;;;;1.60;0.80;;;;;;;;;;5095077;28;20457;-76
2022/02/17 01:50:11;;;;;;;1.40;0.73;;;;;;;;;;5095060;28;20392;-75
2022/02/17 01:52:37;;;;;;;1.30;0.77;;;;;;;;;;5095418;28;20461;-75
2022/02/17 01:55:03;;;;;;;2.60;0.80;;;;;;;;;;5095338;28;20507;-76
2022/02/17 01:57:30;;;;;;;1.87;0.80;;;;;;;;;;5094909;28;20404;-75
2022/02/17 01:59:56;;;;;;;1.37;0.70;;;;;;;;;;5095073;28;20439;-75
2022/02/17 02:02:22;;;;;;;1.30;0.80;;;;;;;;;;5094958;28;20449;-76
2022/02/17 02:04:49;;;;;;;1.50;0.70;;;;;;;;;;5094643;28;20798;-76
2022/02/17 02:07:15;;;;;;;1.57;0.80;;;;;;;;;;5094719;28;20411;-75
2022/02/17 02:09:41;;;;;;;1.37;0.80;;;;;;;;;;5089514;28;20429;-75
2022/02/17 02:12:10;;;;;;;1.53;0.80;;;;;;;;;;5083669;28;20499;-76
2022/02/17 02:14:37;;;;;;;1.50;0.90;;;;;;;;;;5074513;28;20792;-75
2022/02/17 02:17:04;;;;;;;2.47;0.67;;;;;;;;;;5074626;28;20412;-76
2022/02/17 02:19:30;;;;;;;1.30;0.60;;;;;;;;;;5074581;28;20404;-76
2022/02/17 02:21:56;;;;;;;1.30;0.70;;;;;;;;;;5074319;28;20915;-75
2022/02/17 02:24:22;;;;;;;1.20;0.70;;;;;;;;;;5074121;28;20897;-77
2022/02/17 02:26:48;;;;;;;1.30;0.60;;;;;;;;;;5074069;28;20543;-76
2022/02/17 02:29:14;;;;;;;1.37;0.67;;;;;;;;;;5074253;28;20466;-76
2022/02/17 02:31:40;;;;;;;1.40;0.60;;;;;;;;;;5073915;28;20434;-76
2022/02/17 02:34:06;;;;;;;1.30;0.80;;;;;;;;;;5073855;28;20444;-76
2022/02/17 02:36:32;;;;;;;1.30;0.70;;;;;;;;;;5074171;28;20408;-75
2022/02/17 02:38:58;;;;;;;1.30;0.70;;;;;;;;;;5074140;28;20507;-76
2022/02/17 02:41:27;;;;;;;1.40;0.70;;;;;;;;;;5074040;28;20558;-76
2022/02/17 02:43:57;;;;;;;2.20;0.80;;;;;;;;;;5073804;28;20432;-75
2022/02/17 02:46:23;;;;;;;1.30;0.80;;;;;;;;;;5073535;28;21030;-76
2022/02/17 02:48:49;;;;;;;1.30;0.80;;;;;;;;;;5073815;28;20774;-76
2022/02/17 02:51:15;;;;;;;1.30;0.70;;;;;;;;;;5073957;28;20811;-76
2022/02/17 02:53:41;;;;;;;1.30;0.80;;;;;;;;;;5073513;28;20474;-76
2022/02/17 02:56:07;;;;;;;1.20;0.60;;;;;;;;;;5073739;28;20503;-76
2022/02/17 02:58:34;;;;;;;1.40;0.70;;;;;;;;;;5073592;28;20408;-75
2022/02/17 03:01:00;;;;;;;1.20;0.60;;;;;;;;;;5073436;28;20405;-76
2022/02/17 03:03:26;;;;;;;1.30;0.70;;;;;;;;;;5073330;28;20424;-76
2022/02/17 03:05:52;;;;;;;1.30;0.80;;;;;;;;;;5073153;28;20452;-76
2022/02/17 03:08:18;;;;;;;1.50;0.80;;;;;;;;;;5073244;28;20491;-76
2022/02/17 03:10:45;;;;;;;1.30;0.70;;;;;;;;;;5073342;28;20450;-75
2022/02/17 03:13:11;;;;;;;1.20;0.60;;;;;;;;;;5073300;28;20401;-76
2022/02/17 03:15:37;;;;;;;2.43;0.70;;;;;;;;;;5073191;28;20401;-76
2022/02/17 03:18:03;;;;;;;1.50;0.70;;;;;;;;;;5073170;28;20968;-76
2022/02/17 03:20:29;;;;;;;1.30;0.60;;;;;;;;;;5071979;28;20460;-76
2022/02/17 03:22:55;;;;;;;1.20;0.60;;;;;;;;;;5073375;28;20479;-75
2022/02/17 03:25:21;;;;;;;1.30;0.80;;;;;;;;;;5073266;28;20967;-76
2022/02/17 03:27:47;;;;;;;3.13;0.70;;;;;;;;;;5073034;28;20397;-76
2022/02/17 03:30:14;;;;;;;1.30;0.70;;;;;;;;;;5073110;28;20483;-76
2022/02/17 03:32:40;;;;;;;1.30;0.70;;;;;;;;;;5073121;28;20401;-75
2022/02/17 03:35:06;;;;;;;1.30;0.70;;;;;;;;;;5072718;28;20444;-76
2022/02/17 03:37:33;;;;;;;1.77;0.60;;;;;;;;;;5073102;28;20416;-76
2022/02/17 03:39:59;;;;;;;1.20;0.70;;;;;;;;;;5072957;28;20476;-75
2022/02/17 03:42:25;;;;;;;1.30;0.70;;;;;;;;;;5087401;28;20463;-76
2022/02/17 03:44:51;;;;;;;1.20;0.60;;;;;;;;;;5073515;28;20452;-75
2022/02/17 03:47:17;;;;;;;1.27;0.70;;;;;;;;;;5079643;28;20633;-76
2022/02/17 03:49:43;;;;;;;1.60;0.60;;;;;;;;;;5073801;28;20970;-76
2022/02/17 03:52:10;;;;;;;1.30;0.80;;;;;;;;;;5073271;28;20771;-76
2022/02/17 03:54:36;;;;;;;1.27;0.70;;;;;;;;;;5072869;28;20420;-75
2022/02/17 03:57:02;;;;;;;1.40;0.80;;;;;;;;;;5073077;28;20400;-75
2022/02/17 03:59:28;;;;;;;1.20;0.70;;;;;;;;;;5072932;28;20412;-76
2022/02/17 04:01:54;;;;;;;1.30;0.60;;;;;;;;;;5072923;28;20401;-76
2022/02/17 04:04:20;;;;;;;3.30;0.70;;;;;;;;;;5072777;28;20444;-76
2022/02/17 04:06:46;;;;;;;1.30;0.80;;;;;;;;;;5073043;28;20449;-76
2022/02/17 04:09:12;;;;;;;1.30;0.60;;;;;;;;;;5072793;28;20400;-75
2022/02/17 04:11:38;;;;;;;2.60;0.70;;;;;;;;;;5072807;28;20435;-76
2022/02/17 04:14:04;;;;;;;1.67;0.70;;;;;;;;;;5072695;28;20428;-75
2022/02/17 04:16:30;;;;;;;1.20;0.60;;;;;;;;;;5072703;28;20527;-76
2022/02/17 04:18:57;;;;;;;1.20;0.70;;;;;;;;;;5072740;28;20440;-76
2022/02/17 04:21:23;;;;;;;1.40;0.70;;;;;;;;;;5072698;28;20415;-76
2022/02/17 04:23:50;;;;;;;1.27;0.70;;;;;;;;;;5072341;28;20513;-76
2022/02/17 04:26:17;;;;;;;1.40;0.70;;;;;;;;;;5072672;28;20479;-76
2022/02/17 04:28:44;;;;;;;6.57;0.80;;;;;;;;;;5071601;28;20967;-75
2022/02/17 04:31:10;;;;;;;1.27;0.73;;;;;;;;;;5072532;28;20411;-76
2022/02/17 04:33:37;;;;;;;1.30;0.70;;;;;;;;;;5077187;28;20818;-75
2022/02/17 04:36:04;;;;;;;1.20;0.70;;;;;;;;;;5096188;28;20838;-76
2022/02/17 04:38:30;;;;;;;1.20;0.60;;;;;;;;;;5096276;28;20487;-76
2022/02/17 04:43:41;;;;;;;1.30;0.70;;;;;;;;;;5096651;28;20812;-76
2022/02/17 04:46:07;;;;;;;1.20;0.70;;;;;;;;;;5094674;28;20930;-76
2022/02/17 04:48:34;;;;;;;1.20;0.60;;;;;;;;;;5096460;28;20433;-75
2022/02/17 04:51:00;;;;;;;2.23;0.90;;;;;;;;;;5096602;28;20903;-76
2022/02/17 04:53:26;;;;;;;1.20;0.70;;;;;;;;;;5096294;28;20843;-76
2022/02/17 04:55:52;;;;;;;3.10;0.80;;;;;;;;;;5096417;28;20412;-75
2022/02/17 04:58:18;;;;;;;1.20;0.70;;;;;;;;;;5096367;28;20494;-76
2022/02/17 05:00:44;;;;;;;1.30;0.63;;;;;;;;;;5096076;28;20453;-76
2022/02/17 05:03:11;;;;;;;1.50;1.00;;;;;;;;;;5096020;28;20404;-76
2022/02/17 05:05:37;;;;;;;1.30;0.70;;;;;;;;;;5096134;28;20454;-76
2022/02/17 05:08:04;;;;;;;1.20;0.60;;;;;;;;;;5096287;28;20416;-75
2022/02/17 05:10:30;;;;;;;1.50;0.70;;;;;;;;;;5095980;28;20392;-75
2022/02/17 05:12:56;;;;;;;1.27;0.70;;;;;;;;;;5095977;28;20435;-75
2022/02/17 05:15:22;;;;;;;1.70;0.90;;;;;;;;;;5096198;28;20453;-75
2022/02/17 05:17:48;;;;;;;1.20;0.60;;;;;;;;;;5096073;28;20502;-75
2022/02/17 05:20:14;;;;;;;3.10;1.60;;;;;;;;;;5094507;28;20473;-76
2022/02/17 05:22:43;;;;;;;2.77;0.63;;;;;;;;;;5095846;28;20411;-76
2022/02/17 05:25:10;;;;;;;1.40;0.70;;;;;;;;;;5095529;28;20465;-75
2022/02/17 05:27:36;;;;;;;2.33;0.60;;;;;;;;;;5095723;28;20469;-75
2022/02/17 05:30:02;;;;;;;1.83;0.80;;;;;;;;;;5095715;28;20487;-75
2022/02/17 05:32:28;;;;;;;2.00;0.80;;;;;;;;;;5094241;28;20404;-75
2022/02/17 05:34:54;;;;;;;1.40;0.70;;;;;;;;;;5095204;28;20535;-75
2022/02/17 05:37:20;;;;;;;1.30;0.70;;;;;;;;;;5095405;28;20404;-75
2022/02/17 05:39:46;;;;;;;2.53;0.60;;;;;;;;;;5095272;28;20404;-76
2022/02/17 05:42:13;;;;;;;1.27;0.70;;;;;;;;;;5095141;28;20532;-75
2022/02/17 05:44:39;;;;;;;1.30;0.80;;;;;;;;;;5094277;28;20416;-76
2022/02/17 05:47:06;;;;;;;1.30;0.60;;;;;;;;;;5095638;28;20399;-76
2022/02/17 05:49:32;;;;;;;1.30;0.70;;;;;;;;;;5095688;28;20428;-75
2022/02/17 05:51:58;;;;;;;1.73;0.70;;;;;;;;;;5095189;28;20482;-76
2022/02/17 05:54:24;;;;;;;1.60;0.70;;;;;;;;;;5095453;28;20443;-76
2022/02/17 05:56:50;;;;;;;1.40;0.70;;;;;;;;;;5095639;28;20403;-76
2022/02/17 05:59:16;;;;;;;1.53;0.80;;;;;;;;;;5096004;28;20486;-76
2022/02/17 06:01:42;;;;;;;1.20;0.70;;;;;;;;;;5097243;28;20453;-75
2022/02/17 06:04:08;;;;;;;1.30;0.70;;;;;;;;;;5095959;28;20438;-75
2022/02/17 06:06:36;;;;;;;1.33;0.70;;;;;;;;;;5094633;28;20472;-76
2022/02/17 06:09:03;;;;;;;1.40;0.70;;;;;;;;;;5095182;28;20399;-75
2022/02/17 06:11:29;;;;;;;1.27;0.70;;;;;;;;;;5093594;28;20608;-75
2022/02/17 06:13:55;;;;;;;1.20;0.70;;;;;;;;;;5094701;28;20789;-75
2022/02/17 06:16:21;;;;;;;1.20;0.70;;;;;;;;;;5095131;28;20836;-76
2022/02/17 06:18:47;;;;;;;1.20;0.70;;;;;;;;;;5093349;28;20630;-76
2022/02/17 06:21:13;;;;;;;1.60;0.70;;;;;;;;;;5095278;28;20777;-75
2022/02/17 06:23:39;;;;;;;1.20;0.70;;;;;;;;;;5094747;28;20473;-76
2022/02/17 06:26:06;;;;;;;1.77;0.70;;;;;;;;;;5094862;28;20458;-75
2022/02/17 06:28:32;;;;;;;2.73;0.77;;;;;;;;;;5095467;28;20411;-75
2022/02/17 06:30:58;;;;;;;2.53;0.80;;;;;;;;;;5095125;28;20392;-75
2022/02/17 06:35:50;;;;;;;1.30;0.90;;;;;;;;;;5053438;22;20486;-81
2022/02/17 06:38:16;;;;;;;1.20;0.70;;;;;;;;;;5037953;28;20975;-79
2022/02/17 06:40:42;;;;;;;2.63;0.70;;;;;;;;;;5038423;28;20743;-81
2022/02/17 06:43:13;;;;;;;1.80;0.83;;;;;;;;;;5039301;28;20386;-81
2022/02/17 06:45:40;;;;;;;1.30;0.60;;;;;;;;;;5038847;28;20520;-81
2022/02/17 06:48:06;;;;;;;1.30;0.70;;;;;;;;;;5038716;28;20522;-80
2022/02/17 06:50:33;;;;;;;1.20;0.70;;;;;;;;;;5039808;28;20529;-80
2022/02/17 06:52:59;;;;;;;1.80;0.60;;;;;;;;;;5037599;28;20413;-81
2022/02/17 06:55:25;;;;;;;1.30;0.60;;;;;;;;;;5038987;28;20505;-80
2022/02/17 06:57:52;;;;;;;1.30;0.70;;;;;;;;;;5038512;28;20497;-80
2022/02/17 07:00:18;;;;;;;1.20;0.70;;;;;;;;;;5038094;28;21004;-81
2022/02/17 07:02:52;;;;;;;1.20;0.60;;;;;;;;;;5037475;28;20418;-80
2022/02/17 07:05:19;;;;;;;1.87;0.90;;;;;;;;;;5037852;28;20500;-81
2022/02/17 07:07:45;;;;;;;1.20;0.70;;;;;;;;;;5034832;28;20543;-80
2022/02/17 07:10:11;;;;;;;1.20;0.70;;;;;;;;;;5022815;28;20416;-80
2022/02/17 07:12:37;;;;;;;1.30;0.70;;;;;;;;;;5032619;28;20505;-80
2022/02/17 07:15:03;;;;;;;1.50;0.80;;;;;;;;;;5035185;28;20434;-80
2022/02/17 07:17:30;;;;;;;1.30;0.80;;;;;;;;;;5032917;28;20417;-80
2022/02/17 07:19:56;;;;;;;1.60;0.90;;;;;;;;;;5035270;28;20508;-80
2022/02/17 07:22:22;;;;;;;1.30;0.77;;;;;;;;;;5035890;28;20453;-80
2022/02/17 07:24:48;;;;;;;1.30;0.70;;;;;;;;;;5035884;28;20496;-79
2022/02/17 07:27:14;;;;;;;1.33;0.70;;;;;;;;;;5037670;28;20433;-80
2022/02/17 07:29:40;;;;;;;2.37;0.80;;;;;;;;;;5027091;28;20410;-80
2022/02/17 07:32:08;;;;;;;1.57;0.90;;;;;;;;;;5036779;28;20788;-80
2022/02/17 07:34:34;;;;;;;1.20;0.67;;;;;;;;;;5031420;28;20454;-80
2022/02/17 07:37:00;;;;;;;2.37;0.70;;;;;;;;;;5034874;28;20434;-80
2022/02/17 07:39:26;;;;;;;1.40;0.67;;;;;;;;;;5036635;28;20418;-80
2022/02/17 07:41:52;;;;;;;1.30;0.70;;;;;;;;;;5034841;28;20508;-80
2022/02/17 07:44:24;;;;;;;1.40;0.77;;;;;;;;;;5034137;28;20504;-80
2022/02/17 07:46:51;;;;;;;1.47;0.80;;;;;;;;;;5030705;28;20439;-80
2022/02/17 07:49:17;;;;;;;1.30;0.70;;;;;;;;;;5036234;28;20422;-80
2022/02/17 07:51:43;;;;;;;3.30;0.80;;;;;;;;;;5036290;28;20425;-81
2022/02/17 07:54:09;;;;;;;1.40;0.80;;;;;;;;;;5035554;28;20465;-80
2022/02/17 07:56:35;;;;;;;1.37;0.60;;;;;;;;;;5034110;28;20422;-80
2022/02/17 07:59:01;;;;;;;2.37;0.70;;;;;;;;;;5030681;28;20584;-79
2022/02/17 08:01:27;;;;;;;1.30;0.70;;;;;;;;;;5033921;28;20419;-79
2022/02/17 08:03:54;;;;;;;1.70;0.70;;;;;;;;;;5041492;28;20434;-79
2022/02/17 08:06:20;;;;;;;1.30;0.60;;;;;;;;;;5030918;28;20450;-79
2022/02/17 08:08:49;;;;;;;1.67;0.73;;;;;;;;;;5038698;28;20414;-79
2022/02/17 08:11:16;;;;;;;1.20;0.70;;;;;;;;;;5041771;28;20825;-79
2022/02/17 08:13:42;;;;;;;2.37;0.70;;;;;;;;;;5039374;28;20482;-80
2022/02/17 08:16:09;;;;;;;1.70;0.90;;;;;;;;;;5046072;28;20420;-80
2022/02/17 08:18:35;;;;;;;1.40;0.73;;;;;;;;;;5040776;28;20437;-81
2022/02/17 08:21:01;;;;;;;2.33;0.70;;;;;;;;;;5040682;28;20422;-80
2022/02/17 08:23:30;;;;;;;1.30;0.73;;;;;;;;;;5042835;28;20426;-80
2022/02/17 08:25:58;;;;;;;2.07;0.80;;;;;;;;;;5039820;28;20480;-79
2022/02/17 08:28:24;;;;;;;2.83;0.80;;;;;;;;;;5034480;28;20489;-79
2022/02/17 08:30:50;;;;;;;2.07;0.80;;;;;;;;;;5037659;28;20164;-79
2022/02/17 08:33:16;;;;;;;1.53;0.90;;;;;;;;;;5041169;28;20418;-77
2022/02/17 08:35:42;;;;;;;1.30;0.70;;;;;;;;;;5036136;28;20476;-79
2022/02/17 08:38:09;;;;;;;1.70;0.70;;;;;;;;;;5038068;28;20509;-79
2022/02/17 08:40:35;;;;;;;4.30;0.97;;;;;;;;;;5038938;28;20227;-79
2022/02/17 08:43:10;;;;;;;1.20;0.80;;;;;;;;;;5038878;28;20490;-80
2022/02/17 08:45:43;;;;;;;1.27;0.70;;;;;;;;;;5031004;28;21027;-80
2022/02/17 08:48:09;;;;;;;1.20;0.70;;;;;;;;;;5035634;28;20418;-80
2022/02/17 08:50:36;;;;;;;1.20;0.70;;;;;;;;;;5036174;28;20776;-81
2022/02/17 08:53:02;;;;;;;1.50;0.80;;;;;;;;;;5036225;28;20504;-79
2022/02/17 08:55:28;;;;;;;1.30;0.80;;;;;;;;;;5037249;28;20481;-80
2022/02/17 08:57:54;;;;;;;1.40;0.90;;;;;;;;;;5038969;28;20450;-77
2022/02/17 09:00:21;;;;;;;1.70;0.87;;;;;;;;;;5031255;28;20505;-77
2022/02/17 09:02:47;;;;;;;1.30;0.80;;;;;;;;;;5036966;28;20445;-79
2022/02/17 09:05:13;;;;;;;2.33;0.80;;;;;;;;;;5037563;28;20591;-80
2022/02/17 09:07:39;;;;;;;2.50;0.77;;;;;;;;;;5034245;28;20439;-78
2022/02/17 09:10:06;;;;;;;4.75;0.70;;;;;;;;;;5036171;28;20480;-79
2022/02/17 09:12:33;;;;;;;2.33;0.90;;;;;;;;;;5038014;28;20176;-79
2022/02/17 09:14:59;;;;;;;2.83;0.70;;;;;;;;;;5035207;28;20970;-77
2022/02/17 09:17:25;;;;;;;3.53;1.10;;;;;;;;;;5037596;28;20570;-78
2022/02/17 09:19:51;;;;;;;1.50;0.87;;;;;;;;;;5036123;28;20491;-78
2022/02/17 09:22:17;;;;;;;2.47;0.93;;;;;;;;;;5037597;28;20472;-79
2022/02/17 09:24:43;;;;;;;1.87;1.10;;;;;;;;;;5036625;28;20454;-78
2022/02/17 09:27:09;;;;;;;3.27;1.33;;;;;;;;;;5036232;28;20422;-78
2022/02/17 09:29:36;;;;;;;2.03;1.10;;;;;;;;;;5036717;28;20422;-78
2022/02/17 09:32:02;;;;;;;1.80;1.07;;;;;;;;;;5038463;28;20430;-78
2022/02/17 09:34:28;;;;;;;6.43;1.77;;;;;;;;;;5036858;28;20477;-79
2022/02/17 09:36:54;;;;;;;2.03;1.00;;;;;;;;;;5034318;28;20818;-79
2022/02/17 09:39:21;;;;;;;6.30;1.20;;;;;;;;;;5036123;28;20423;-78
2022/02/17 09:41:47;;;;;;;2.90;1.00;;;;;;;;;;5036753;28;20444;-79
2022/02/17 09:44:13;;;;;;;7.50;1.20;;;;;;;;;;5036578;28;20460;-79
2022/02/17 09:46:45;;;;;;;9.03;1.47;;;;;;;;;;5037850;28;20246;-79
2022/02/17 09:49:14;;;;;;;3.17;1.20;;;;;;;;;;5037932;28;20430;-79
2022/02/17 09:51:41;;;;;;;3.70;1.00;;;;;;;;;;5034181;28;20463;-79
2022/02/17 09:54:07;;;;;;;8.70;1.37;;;;;;;;;;5037394;28;20218;-79
2022/02/17 09:56:36;;;;;;;4.40;1.27;;;;;;;;;;5037954;28;20472;-79
2022/02/17 09:59:02;;;;;;;5.10;1.00;;;;;;;;;;5034436;28;20421;-80
2022/02/17 10:01:28;;;;;;;9.13;2.00;;;;;;;;;;5044858;28;20183;-81
2022/02/17 10:04:12;;;;;;;2.07;1.20;;;;;;;;;;5035637;28;20545;-81
2022/02/17 10:06:42;;;;;;;4.57;1.17;;;;;;;;;;5039008;28;20454;-80
2022/02/17 10:09:09;;;;;;;1.73;0.93;;;;;;;;;;5033698;28;20679;-79
2022/02/17 10:11:35;;;;;;;2.43;1.17;;;;;;;;;;5033525;28;20430;-80
2022/02/17 10:14:06;;;;;;;2.63;1.80;;;;;;;;;;5037250;28;20443;-80
2022/02/17 10:16:50;;;;;;;3.30;1.40;;;;;;;;;;5038714;28;20537;-79
2022/02/17 10:19:17;;;;;;;3.47;0.82;;;;;;;;;;5033791;28;20453;-80
2022/02/17 10:21:43;;;;;;;2.80;1.17;;;;;;;;;;5037336;28;20271;-79
2022/02/17 10:24:09;;;;;;;1.53;0.80;;;;;;;;;;5042625;28;20480;-79
2022/02/17 10:26:35;;;;;;;1.73;0.70;;;;;;;;;;5038834;28;20452;-79
2022/02/17 10:29:06;;;;;;;2.07;0.83;;;;;;;;;;5032320;28;20497;-79
2022/02/17 10:31:35;;;;;;;2.50;1.00;;;;;;;;;;5041712;28;20415;-79
2022/02/17 10:34:02;;;;;;;5.57;1.30;;;;;;;;;;5033995;28;20457;-79
2022/02/17 10:36:33;;;;;;;3.70;1.30;;;;;;;;;;5034238;28;20582;-78
2022/02/17 10:39:16;;;;;;;11.30;1.57;;;;;;;;;;5031817;28;20918;-79
2022/02/17 10:41:49;;;;;;;7.60;1.80;;;;;;;;;;5033961;28;20426;-79
2022/02/17 10:44:20;;;;;;;2.80;1.33;;;;;;;;;;5031554;28;20457;-79
2022/02/17 10:46:46;;;;;;;3.37;1.80;;;;;;;;;;5036380;28;21017;-79
2022/02/17 10:49:13;;;;;;;4.30;1.90;;;;;;;;;;5034775;28;20864;-79
2022/02/17 10:51:39;;;;;;;7.87;2.57;;;;;;;;;;5032146;28;20438;-78
2022/02/17 10:54:06;;;;;;;6.30;1.60;;;;;;;;;;5036608;28;20442;-79
2022/02/17 10:56:33;;;;;;;7.83;3.60;;;;;;;;;;5035550;28;20430;-79
2022/02/17 10:59:00;;;;;;;3.10;2.00;;;;;;;;;;5039057;28;20422;-79
2022/02/17 11:01:26;;;;;;;6.10;1.67;;;;;;;;;;5035142;28;20473;-78
2022/02/17 11:03:54;;;;;;;9.97;2.33;;;;;;;;;;5030639;28;20915;-79
2022/02/17 11:06:21;;;;;;;7.73;2.53;;;;;;;;;;5038183;28;20462;-80
2022/02/17 11:08:48;;;;;;;8.50;2.60;;;;;;;;;;5036236;28;20466;-79
2022/02/17 11:11:14;;;;;;;4.20;1.60;;;;;;;;;;5034335;28;20434;-79
2022/02/17 11:13:43;;;;;;;4.70;1.80;;;;;;;;;;5035227;28;20406;-78
2022/02/17 11:16:10;;;;;;;5.13;1.70;;;;;;;;;;5037484;28;20423;-79
2022/02/17 11:18:36;;;;;;;5.33;1.70;;;;;;;;;;5038498;28;20430;-79
2022/02/17 11:21:03;;;;;;;3.37;1.40;;;;;;;;;;5035469;28;20422;-79
2022/02/17 11:23:30;;;;;;;2.73;1.53;;;;;;;;;;5037870;28;20433;-79
2022/02/17 11:25:57;;;;;;;6.33;2.20;;;;;;;;;;5037471;28;20456;-79
2022/02/17 11:28:32;;;;;;;5.67;1.60;;;;;;;;;;5036517;28;20430;-79
2022/02/17 11:30:59;;;;;;;6.90;2.03;;;;;;;;;;5032707;28;20430;-79
2022/02/17 11:33:32;;;;;;;3.60;1.40;;;;;;;;;;5038299;28;20446;-79
2022/02/17 11:35:59;;;;;;;4.60;1.50;;;;;;;;;;5037205;28;20973;-79
2022/02/17 11:38:25;;;;;;;5.83;2.10;;;;;;;;;;5036396;28;20430;-78
2022/02/17 11:40:59;;;;;;;6.33;1.43;;;;;;;;;;5033556;28;20418;-79
2022/02/17 11:43:32;;;;;;;4.90;1.93;;;;;;;;;;5034119;28;20425;-78
2022/02/17 11:45:58;;;;;;;5.20;1.60;;;;;;;;;;5032896;28;20461;-78
2022/02/17 11:48:33;;;;;;;5.03;2.00;;;;;;;;;;5036594;28;20912;-78
2022/02/17 11:51:14;;;;;;;7.33;3.37;;;;;;;;;;5036855;28;20551;-79
2022/02/17 11:53:42;;;;;;;3.80;1.93;;;;;;;;;;5031172;28;20461;-79
2022/02/17 11:56:17;;;;;;;4.70;1.83;;;;;;;;;;5034582;28;20426;-79
2022/02/17 11:58:50;;;;;;;4.07;1.77;;;;;;;;;;5034510;28;20509;-79
2022/02/17 12:01:36;;;;;;;6.60;2.20;;;;;;;;;;5036837;28;20426;-77
2022/02/17 12:04:02;;;;;;;8.70;2.20;;;;;;;;;;5035889;28;20441;-80
2022/02/17 12:06:41;;;;;;;7.50;2.67;;;;;;;;;;5032552;28;20443;-79
2022/02/17 12:09:10;;;;;;;6.60;3.00;;;;;;;;;;5034562;28;20422;-79
2022/02/17 12:11:41;;;;;;;5.90;2.47;;;;;;;;;;5032808;28;20427;-79
2022/02/17 12:14:08;;;;;;;9.50;3.50;;;;;;;;;;5036519;28;20450;-80
2022/02/17 12:16:40;;;;;;;6.50;2.37;;;;;;;;;;5037164;28;20468;-80
2022/02/17 12:19:10;;;;;;;5.73;2.20;;;;;;;;;;5035916;28;20930;-79
2022/02/17 12:21:38;;;;;;;3.53;1.70;;;;;;;;;;5036147;28;20793;-80
2022/02/17 12:24:05;;;;;;;5.37;2.30;;;;;;;;;;5035421;28;20450;-80
2022/02/17 12:26:40;;;;;;;10.33;2.10;;;;;;;;;;5036679;28;20454;-80
2022/02/17 12:29:19;;;;;;;7.77;1.67;;;;;;;;;;5036958;28;20413;-80
2022/02/17 12:31:46;;;;;;;10.80;1.90;;;;;;;;;;5036016;28;20429;-80
2022/02/17 12:34:12;;;;;;;8.83;2.40;;;;;;;;;;5060837;23;20470;-76
2022/02/17 12:36:38;;;;;;;6.07;2.03;;;;;;;;;;5026174;28;20422;-76
2022/02/17 12:39:05;;;;;;;7.47;1.73;;;;;;;;;;5027268;28;20902;-75
2022/02/17 12:41:31;;;;;;;5.17;2.13;;;;;;;;;;5026464;28;20454;-77
2022/02/17 12:43:57;;;;;;;10.20;2.40;;;;;;;;;;5030942;28;20513;-76
2022/02/17 12:46:23;;;;;;;5.03;2.00;;;;;;;;;;5031266;28;20546;-77
2022/02/17 12:48:49;;;;;;;7.40;2.30;;;;;;;;;;5029786;28;22307;-77
2022/02/17 12:51:28;;;;;;;8.30;2.60;;;;;;;;;;5030558;28;20476;-76
2022/02/17 12:53:57;;;;;;;9.70;2.30;;;;;;;;;;5031792;28;20418;-76
2022/02/17 12:56:30;;;;;;;4.60;2.07;;;;;;;;;;5037447;28;20922;-77
2022/02/17 12:59:04;;;;;;;7.13;2.27;;;;;;;;;;5028148;28;20794;-76
2022/02/17 13:01:30;;;;;;;8.13;2.57;;;;;;;;;;5033816;28;20430;-77
2022/02/17 13:03:56;;;;;;;6.57;2.03;;;;;;;;;;5036464;28;20433;-76
2022/02/17 13:06:26;;;;;;;8.70;3.13;;;;;;;;;;5035947;28;20463;-77
2022/02/17 13:08:54;;;;;;;7.20;2.20;;;;;;;;;;5035608;28;20476;-76
2022/02/17 13:11:21;;;;;;;6.87;2.37;;;;;;;;;;5032755;28;20422;-76
2022/02/17 13:13:48;;;;;;;11.50;2.83;;;;;;;;;;5036125;28;20960;-76
2022/02/17 13:16:15;;;;;;;6.70;2.00;;;;;;;;;;5034724;28;20446;-77
2022/02/17 13:18:42;;;;;;;5.30;2.20;;;;;;;;;;5033987;28;20462;-76
2022/02/17 13:21:18;;;;;;;5.70;2.30;;;;;;;;;;5039236;28;20426;-76
2022/02/17 13:23:45;;;;;;;5.30;1.80;;;;;;;;;;5033919;28;20469;-75
2022/02/17 13:26:25;;;;;;;5.10;2.10;;;;;;;;;;5041009;28;20809;-76
2022/02/17 13:28:51;;;;;;;6.33;2.33;;;;;;;;;;5033116;28;20414;-76
2022/02/17 13:31:19;;;;;;;4.10;1.77;;;;;;;;;;5037385;28;20445;-76
2022/02/17 13:33:45;;;;;;;4.03;2.07;;;;;;;;;;5028450;28;20422;-76
2022/02/17 13:36:22;;;;;;;6.80;2.13;;;;;;;;;;5036524;28;20507;-76
2022/02/17 13:39:02;;;;;;;7.47;2.50;;;;;;;;;;5032176;28;20950;-76
2022/02/17 13:41:28;;;;;;;13.37;2.90;;;;;;;;;;5034879;28;20418;-77
2022/02/17 13:43:58;;;;;;;8.37;2.00;;;;;;;;;;5034062;28;21269;-76
2022/02/17 13:46:24;;;;;;;5.60;1.83;;;;;;;;;;5034681;28;20450;-76
2022/02/17 13:48:51;;;;;;;5.10;2.10;;;;;;;;;;5032699;28;20415;-76
2022/02/17 13:51:18;;;;;;;9.23;2.50;;;;;;;;;;5036722;28;20453;-77
2022/02/17 13:53:57;;;;;;;4.80;1.90;;;;;;;;;;5035347;28;20430;-77
2022/02/17 13:56:24;;;;;;;7.57;1.83;;;;;;;;;;5031990;28;20414;-76
2022/02/17 13:59:01;;;;;;;6.37;2.47;;;;;;;;;;5035379;28;20458;-76
2022/02/17 14:01:34;;;;;;;5.93;2.43;;;;;;;;;;5033001;28;20418;-76
2022/02/17 14:04:01;;;;;;;6.77;2.03;;;;;;;;;;5034359;28;20434;-77
2022/02/17 14:06:27;;;;;;;6.73;2.70;;;;;;;;;;5033545;28;20568;-76
2022/02/17 14:08:53;;;;;;;10.33;2.53;;;;;;;;;;5038111;28;20476;-75
2022/02/17 14:11:20;;;;;;;5.90;1.87;;;;;;;;;;5039490;28;20421;-76
2022/02/17 14:13:46;;;;;;;8.17;2.07;;;;;;;;;;5030978;28;25464;-75
2022/02/17 14:16:13;;;;;;;6.47;2.13;;;;;;;;;;5033134;28;20532;-76
2022/02/17 14:18:39;;;;;;;5.50;2.30;;;;;;;;;;5022472;28;20462;-75
2022/02/17 14:21:05;;;;;;;9.13;2.33;;;;;;;;;;5022356;28;20800;-76
2022/02/17 14:23:32;;;;;;;6.13;2.80;;;;;;;;;;5025402;28;20521;-76
2022/02/17 14:25:58;;;;;;;10.23;2.13;;;;;;;;;;5026513;28;20474;-76
2022/02/17 14:28:24;;;;;;;5.60;2.23;;;;;;;;;;5031418;28;20422;-76
2022/02/17 14:30:50;;;;;;;6.43;1.80;;;;;;;;;;5027285;28;20423;-76
2022/02/17 14:33:17;;;;;;;11.00;2.70;;;;;;;;;;5026041;28;20444;-76
2022/02/17 14:35:44;;;;;;;7.17;1.73;;;;;;;;;;5028313;28;20553;-76
2022/02/17 14:38:11;;;;;;;9.13;1.97;;;;;;;;;;5025673;28;20434;-76
2022/02/17 14:40:40;;;;;;;6.60;1.83;;;;;;;;;;5025689;28;20488;-76
2022/02/17 14:43:07;;;;;;;6.97;2.50;;;;;;;;;;5020787;28;20439;-77
2022/02/17 14:45:33;;;;;;;6.53;2.13;;;;;;;;;;5025563;28;20548;-76
2022/02/17 14:47:59;;;;;;;6.23;1.63;;;;;;;;;;5028570;28;20564;-77